createdAt,value
2022-08-28T00:02:12.924Z,19.91667
2022-08-28T00:07:14.531Z,19.66478
2022-08-28T00:12:16.115Z,19.9713
2022-08-28T00:17:17.727Z,21.68812
2022-08-28T00:22:19.308Z,22.01911
2022-08-28T00:27:20.895Z,22.04484
2022-08-28T00:32:22.457Z,21.75102
2022-08-28T00:37:24.682Z,22.38026
2022-08-28T00:42:26.457Z,21.14973
2022-08-28T00:47:28.045Z,19.92842
2022-08-28T00:52:29.632Z,19.4399
2022-08-28T00:57:31.225Z,19.32841
2022-08-28T01:02:33.017Z,19.71783
2022-08-28T01:07:34.665Z,19.25726
2022-08-28T01:12:36.330Z,19.10162
2022-08-28T01:17:37.952Z,19.41481
2022-08-28T01:22:44.754Z,19.85981
2022-08-28T01:27:46.379Z,19.5228
2022-08-28T01:32:47.992Z,19.52217
2022-08-28T01:37:49.619Z,19.81121
2022-08-28T01:42:51.262Z,19.70512
2022-08-28T01:47:52.932Z,19.77214
2022-08-28T01:52:54.557Z,20.86036
2022-08-28T01:57:56.147Z,19.84075
2022-08-28T02:02:57.761Z,20.4541
2022-08-28T02:07:59.413Z,20.39343
2022-08-28T02:13:00.989Z,20.45188
2022-08-28T02:18:02.616Z,19.8525
2022-08-28T02:23:04.227Z,19.55329
2022-08-28T02:28:05.853Z,19.09495
2022-08-28T02:33:07.523Z,19.15244
2022-08-28T02:38:09.175Z,19.07558
2022-08-28T02:43:10.822Z,18.81035
2022-08-28T02:48:16.772Z,18.87674
2022-08-28T02:53:18.950Z,18.37838
2022-08-28T02:58:20.551Z,19.12576
2022-08-28T03:03:22.120Z,19.22518
2022-08-28T03:08:27.277Z,19.69432
2022-08-28T03:13:29.198Z,18.94154
2022-08-28T03:18:30.810Z,17.99881
2022-08-28T03:23:32.453Z,17.91528
2022-08-28T03:28:34.029Z,18.65789
2022-08-28T03:33:35.629Z,18.18494
2022-08-28T03:38:37.234Z,17.37913
2022-08-28T03:43:38.854Z,18.00961
2022-08-28T03:48:44.735Z,18.32311
2022-08-28T03:53:46.605Z,18.07473
2022-08-28T03:58:48.191Z,17.26828
2022-08-28T04:03:49.829Z,17.26859
2022-08-28T04:08:51.550Z,17.25144
2022-08-28T04:13:53.146Z,16.30175
2022-08-28T04:18:54.739Z,15.96095
2022-08-28T04:23:56.312Z,17.05896
2022-08-28T04:28:57.903Z,16.99576
2022-08-28T04:33:59.470Z,16.89062
2022-08-28T04:39:01.129Z,17.27399
2022-08-28T04:44:02.712Z,17.21746
2022-08-28T04:49:04.515Z,16.84234
2022-08-28T04:54:06.166Z,16.19662
2022-08-28T04:59:07.810Z,16.89475
2022-08-28T05:04:09.375Z,17.13138
2022-08-28T05:09:10.988Z,16.5171
2022-08-28T05:14:15.823Z,15.9692
2022-08-28T05:19:17.828Z,15.03731
2022-08-28T05:24:19.690Z,15.86217
2022-08-28T05:29:21.312Z,15.94252
2022-08-28T05:34:25.202Z,15.97873
2022-08-28T05:39:26.822Z,16.1061
2022-08-28T05:44:28.416Z,15.06971
2022-08-28T05:49:30.039Z,15.54614
2022-08-28T05:54:31.663Z,15.48706
2022-08-28T05:59:33.294Z,14.86358
2022-08-28T06:04:34.994Z,13.74272
2022-08-28T06:09:36.659Z,14.99253
2022-08-28T06:14:38.374Z,14.82038
2022-08-28T06:19:41.661Z,14.30426
2022-08-28T06:24:43.458Z,14.02095
2022-08-28T06:29:45.135Z,14.8334
2022-08-28T06:34:46.935Z,14.61012
2022-08-28T06:39:48.594Z,13.67126
2022-08-28T06:44:50.160Z,14.61584
2022-08-28T06:49:51.726Z,12.89565
2022-08-28T06:54:55.545Z,14.64347
2022-08-28T06:59:57.792Z,13.55406
2022-08-28T07:04:59.383Z,13.35079
2022-08-28T07:10:00.988Z,13.78306
2022-08-28T07:15:02.657Z,14.21406
2022-08-28T07:20:04.221Z,13.88628
2022-08-28T07:25:05.820Z,12.91916
2022-08-28T07:30:07.473Z,13.04461
2022-08-28T07:35:09.091Z,13.58836
2022-08-28T07:40:11.381Z,13.62489
2022-08-28T07:45:13.111Z,13.75574
2022-08-28T07:50:14.716Z,13.65951
2022-08-28T07:55:16.322Z,13.60519
2022-08-28T08:00:17.941Z,13.69952
2022-08-28T08:05:20.279Z,12.88644
2022-08-28T08:10:21.891Z,13.5963
2022-08-28T08:15:23.522Z,12.89978
2022-08-28T08:20:25.163Z,13.32856
2022-08-28T08:25:26.788Z,12.80005
2022-08-28T08:30:28.389Z,13.16784
2022-08-28T08:35:30.157Z,12.67523
2022-08-28T08:40:31.794Z,12.71208
2022-08-28T08:45:33.462Z,12.94044
2022-08-28T08:50:35.040Z,13.15895
2022-08-28T08:55:36.659Z,12.62188
2022-08-28T09:00:38.266Z,12.85786
2022-08-28T09:05:39.886Z,12.53676
2022-08-28T09:10:41.504Z,12.53644
2022-08-28T09:15:46.323Z,12.51484
2022-08-28T09:20:50.467Z,12.46815
2022-08-28T09:25:52.115Z,12.64824
2022-08-28T09:30:53.771Z,12.65681
2022-08-28T09:35:55.396Z,12.48785
2022-08-28T09:40:57.008Z,12.09052
2022-08-28T09:45:58.667Z,12.58154
2022-08-28T09:51:00.280Z,12.34873
2022-08-28T09:56:01.930Z,12.1118
2022-08-28T10:01:03.547Z,12.28553
2022-08-28T10:06:05.202Z,11.74052
2022-08-28T10:11:06.811Z,11.66525
2022-08-28T10:16:08.446Z,12.02319
2022-08-28T10:21:10.071Z,11.59379
2022-08-28T10:26:11.685Z,11.9584
2022-08-28T10:31:13.315Z,11.52995
2022-08-28T10:36:28.710Z,11.55758
2022-08-28T10:41:36.559Z,11.48135
2022-08-28T10:46:38.281Z,11.03258
2022-08-28T10:51:43.633Z,11.48421
2022-08-28T10:56:46.339Z,11.28984
2022-08-28T11:01:54.197Z,11.49438
2022-08-28T11:06:56.059Z,11.60967
2022-08-28T11:12:01.764Z,10.61017
2022-08-28T11:17:04.036Z,10.68544
2022-08-28T11:22:07.096Z,11.29492
2022-08-28T11:27:08.691Z,11.33843
2022-08-28T11:32:10.299Z,11.12215
2022-08-28T11:37:11.906Z,11.01988
2022-08-28T11:42:13.500Z,11.45309
2022-08-28T11:47:15.084Z,11.46706
2022-08-28T11:52:16.669Z,10.13123
2022-08-28T11:57:18.258Z,11.10722
2022-08-28T12:02:20.082Z,10.76357
2022-08-28T12:07:21.738Z,10.77342
2022-08-28T12:12:23.354Z,10.61303
2022-08-28T12:17:29.145Z,10.46185
2022-08-28T12:22:32.693Z,10.27669
2022-08-28T12:27:34.325Z,10.5981
2022-08-28T12:32:36.021Z,10.41961
2022-08-28T12:37:51.275Z,10.54316
2022-08-28T12:42:55.477Z,9.86445
2022-08-28T12:47:57.395Z,10.23382
2022-08-28T12:52:59.007Z,10.57587
2022-08-28T12:58:00.579Z,10.45995
2022-08-28T13:03:02.236Z,10.47392
2022-08-28T13:08:03.921Z,9.91241
2022-08-28T13:13:06.936Z,9.74059
2022-08-28T13:18:08.551Z,9.8346
2022-08-28T13:23:10.148Z,9.93559
2022-08-28T13:28:11.699Z,10.28781
2022-08-28T13:33:13.531Z,9.89049
2022-08-28T13:38:15.305Z,8.56803
2022-08-28T13:43:16.914Z,9.8022
2022-08-28T13:48:18.653Z,9.90256
2022-08-28T13:53:20.216Z,9.43697
2022-08-28T13:58:22.500Z,9.786
2022-08-28T14:03:24.097Z,10.01213
2022-08-28T14:08:25.737Z,10.44756
2022-08-28T14:13:27.306Z,11.2692
2022-08-28T14:18:28.988Z,11.56584
2022-08-28T14:23:30.572Z,11.60427
2022-08-28T14:28:32.176Z,11.73544
2022-08-28T14:33:36.923Z,11.46166
2022-08-28T14:38:38.922Z,12.2201
2022-08-28T14:43:40.551Z,11.63857
2022-08-28T14:48:42.133Z,12.06924
2022-08-28T14:53:43.735Z,11.75545
2022-08-28T14:58:45.361Z,10.10773
2022-08-28T15:03:47.162Z,11.62777
2022-08-28T15:08:48.955Z,12.93663
2022-08-28T15:13:50.585Z,13.19929
2022-08-28T15:18:52.268Z,14.52913
2022-08-28T15:23:53.867Z,13.79925
2022-08-28T15:28:55.484Z,13.85992
2022-08-28T15:33:57.117Z,13.84626
2022-08-28T15:38:58.779Z,13.92535
2022-08-28T15:44:00.409Z,12.91503
2022-08-28T15:49:02.133Z,14.06922
2022-08-28T15:54:04.749Z,14.06097
2022-08-28T15:59:06.358Z,15.25234
2022-08-28T16:04:08.139Z,14.06192
2022-08-28T16:09:09.770Z,13.43368
2022-08-28T16:14:11.378Z,14.8099
2022-08-28T16:19:12.954Z,15.12847
2022-08-28T16:24:14.540Z,17.45409
2022-08-28T16:29:16.150Z,17.12598
2022-08-28T16:34:19.681Z,16.03082
2022-08-28T16:39:21.926Z,15.73575
2022-08-28T16:44:23.534Z,16.17915
2022-08-28T16:49:25.116Z,16.92905
2022-08-28T16:54:26.735Z,16.74579
2022-08-28T16:59:28.383Z,17.17521
2022-08-28T17:04:30.019Z,20.05674
2022-08-28T17:09:31.649Z,18.22433
2022-08-28T17:14:33.320Z,18.08553
2022-08-28T17:19:34.978Z,20.23557
2022-08-28T17:24:36.603Z,18.72809
2022-08-28T17:29:38.169Z,19.69909
2022-08-28T17:34:39.774Z,20.46331
2022-08-28T17:39:41.413Z,22.56545
2022-08-28T17:44:43.026Z,22.45364
2022-08-28T17:49:44.624Z,22.69505
2022-08-28T17:54:46.209Z,20.95057
2022-08-28T17:59:47.800Z,22.43172
2022-08-28T18:04:49.457Z,22.75254
2022-08-28T18:09:51.093Z,22.59912
2022-08-28T18:14:52.880Z,21.59347
2022-08-28T18:19:54.478Z,23.05558
2022-08-28T18:24:56.072Z,23.38815
2022-08-28T18:29:57.664Z,21.48357
2022-08-28T18:34:59.240Z,22.08899
2022-08-28T18:40:00.847Z,23.21344
2022-08-28T18:45:03.358Z,22.15093
2022-08-28T18:50:05.059Z,22.82211
2022-08-28T18:55:06.871Z,22.14807
2022-08-28T19:00:08.457Z,22.81385
2022-08-28T19:05:10.074Z,23.69055
2022-08-28T19:10:28.352Z,22.45682
2022-08-28T19:15:35.185Z,23.15405
2022-08-28T19:20:36.816Z,24.14733
2022-08-28T19:25:38.435Z,24.30901
2022-08-28T19:30:40.221Z,24.44052
2022-08-28T19:35:41.899Z,24.70639
2022-08-28T19:40:43.732Z,24.96146
2022-08-28T19:45:45.343Z,24.96655
2022-08-28T19:50:46.949Z,25.07963
2022-08-28T19:55:48.553Z,24.06855
2022-08-28T20:00:50.151Z,26.36486
2022-08-28T20:05:51.779Z,26.37248
2022-08-28T20:10:53.388Z,23.96468
2022-08-28T20:15:55.080Z,26.80895
2022-08-28T20:20:56.755Z,26.07389
2022-08-28T20:25:58.426Z,25.94746
2022-08-28T20:31:00.143Z,28.10055
2022-08-28T20:36:01.822Z,26.12154
2022-08-28T20:41:03.535Z,24.45291
2022-08-28T20:46:05.224Z,25.02722
2022-08-28T20:51:06.962Z,26.28958
2022-08-28T20:56:08.618Z,29.0167
2022-08-28T21:01:10.265Z,26.25146
2022-08-28T21:06:11.870Z,25.28166
2022-08-28T21:11:13.499Z,27.40487
2022-08-28T21:16:15.290Z,25.4443
2022-08-28T21:21:16.907Z,26.27083
2022-08-28T21:26:20.624Z,26.3979
2022-08-28T21:31:22.287Z,27.2921
2022-08-28T21:36:23.893Z,27.52558
2022-08-28T21:41:25.548Z,25.27118
2022-08-28T21:46:27.273Z,29.00463
2022-08-28T21:51:28.844Z,27.63327
2022-08-28T21:56:31.346Z,27.19141
2022-08-28T22:01:33.202Z,25.75083
2022-08-28T22:06:34.868Z,26.84325
2022-08-28T22:11:36.483Z,26.09009
2022-08-28T22:16:38.200Z,24.91731
2022-08-28T22:21:39.914Z,26.9808
2022-08-28T22:26:41.485Z,26.04212
2022-08-28T22:31:43.960Z,25.96398
2022-08-28T22:36:47.882Z,27.64185
2022-08-28T22:41:49.473Z,25.50211
2022-08-28T22:46:51.079Z,26.41981
2022-08-28T22:51:52.638Z,27.78638
2022-08-28T22:56:54.264Z,26.66886
2022-08-28T23:01:55.931Z,26.71905
2022-08-28T23:06:57.515Z,25.56119
2022-08-28T23:12:00.110Z,26.32896
2022-08-28T23:17:02.029Z,26.94459
2022-08-28T23:22:03.679Z,27.21968
2022-08-28T23:27:25.565Z,26.96777
2022-08-28T23:32:36.952Z,27.05926
2022-08-28T23:37:38.629Z,27.1212
2022-08-28T23:42:40.274Z,27.57355
2022-08-28T23:47:41.840Z,28.22285
2022-08-28T23:52:44.208Z,27.99985
2022-08-28T23:57:46.146Z,28.13963
